Time;durP1;ratioP1;P1;durP2;ratioP2;P2;SDS_P1;SDS_P2;PMS_P1;PMS_P2;Temp;Humidity;BMP_temperature;BMP_pressure;BME280_temperature;BME280_humidity;BME280_pressure;Samples;Min_cycle;Max_cycle;Signal;HPM_P1;HPM_P2
2021/10/07 00:00:47;;;;;;;;;;;10.60;98.00;;;;;;5070343;28;20000;-70
2021/10/07 00:03:12;;;;;;;;;;;10.60;97.90;;;;;;5072760;28;19919;-70
2021/10/07 00:05:38;;;;;;;;;;;10.60;98.00;;;;;;5077227;28;20336;-70
2021/10/07 00:08:03;;;;;;;;;;;10.50;97.90;;;;;;5073836;28;20428;-70
2021/10/07 00:10:29;;;;;;;;;;;10.50;98.30;;;;;;5076363;28;19923;-70
2021/10/07 00:12:54;;;;;;;;;;;10.50;98.40;;;;;;5072084;28;19931;-70
2021/10/07 00:15:20;;;;;;;;;;;10.50;98.40;;;;;;5075127;28;20062;-70
2021/10/07 00:17:46;;;;;;;;;;;10.50;98.30;;;;;;5073192;28;19966;-70
2021/10/07 00:20:12;;;;;;;;;;;10.50;98.30;;;;;;5073331;28;19956;-70
2021/10/07 00:22:39;;;;;;;;;;;10.50;98.30;;;;;;5075553;28;20343;-70
2021/10/07 00:25:05;;;;;;;;;;;10.50;98.30;;;;;;5075091;28;19919;-70
2021/10/07 00:27:31;;;;;;;;;;;10.40;98.50;;;;;;5074020;28;19977;-70
2021/10/07 00:30:01;;;;;;;;;;;10.40;98.40;;;;;;5073109;28;20029;-70
2021/10/07 00:32:32;;;;;;;;;;;10.30;98.20;;;;;;5072481;28;20404;-70
2021/10/07 00:40:04;;;;;;;;;;;10.10;98.30;;;;;;5081947;22;19935;-61
2021/10/07 00:42:29;;;;;;;;;;;10.10;98.30;;;;;;5062393;28;19916;-62
2021/10/07 00:44:55;;;;;;;;;;;10.10;98.40;;;;;;5062313;28;19921;-62
2021/10/07 00:47:20;;;;;;;;;;;10.10;98.80;;;;;;5064621;28;19953;-62
2021/10/07 00:49:46;;;;;;;;;;;10.10;98.50;;;;;;5082438;28;20037;-62
2021/10/07 00:52:14;;;;;;;;;;;10.10;98.60;;;;;;5065707;28;19912;-60
2021/10/07 00:54:40;;;;;;;;;;;10.10;98.70;;;;;;5063809;28;19913;-59
2021/10/07 00:57:08;;;;;;;;;;;10.10;98.70;;;;;;5064957;28;20015;-60
2021/10/07 00:59:33;;;;;;;;;;;10.10;98.60;;;;;;5063179;28;19916;-60
2021/10/07 01:02:05;;;;;;;;;;;10.10;98.60;;;;;;5062651;28;19917;-63
2021/10/07 01:04:31;;;;;;;;;;;10.00;98.70;;;;;;5065724;28;20143;-63
2021/10/07 01:06:56;;;;;;;;;;;10.00;98.90;;;;;;5064662;28;19917;-60
2021/10/07 01:09:22;;;;;;;;;;;10.00;98.90;;;;;;5064804;28;19913;-61
2021/10/07 01:11:47;;;;;;;;;;;10.00;98.90;;;;;;5065006;28;19924;-62
2021/10/07 01:14:13;;;;;;;;;;;10.00;98.80;;;;;;5064301;28;20292;-61
2021/10/07 01:16:38;;;;;;;;;;;10.00;98.90;;;;;;5065521;28;20410;-61
2021/10/07 01:19:04;;;;;;;;;;;10.00;98.90;;;;;;5066922;28;19924;-61
2021/10/07 01:21:29;;;;;;;;;;;9.90;98.90;;;;;;5062675;28;19921;-60
2021/10/07 01:23:55;;;;;;;;;;;9.90;99.00;;;;;;5065780;28;19920;-61
2021/10/07 01:26:21;;;;;;;;;;;9.90;99.10;;;;;;5063059;28;19923;-62
2021/10/07 01:28:48;;;;;;;;;;;9.90;99.10;;;;;;5066234;28;19916;-61
2021/10/07 01:31:14;;;;;;;;;;;9.80;99.00;;;;;;5078573;28;20015;-61
2021/10/07 01:33:40;;;;;;;;;;;9.80;99.10;;;;;;5064137;28;20075;-62
2021/10/07 01:36:06;;;;;;;;;;;9.80;99.20;;;;;;5064308;28;19936;-61
2021/10/07 01:38:32;;;;;;;;;;;9.70;99.10;;;;;;5066434;28;20008;-62
2021/10/07 01:40:57;;;;;;;;;;;9.70;99.20;;;;;;5062280;28;19924;-61
2021/10/07 01:43:23;;;;;;;;;;;9.60;99.10;;;;;;5062364;28;19917;-60
2021/10/07 01:45:49;;;;;;;;;;;9.50;99.20;;;;;;5062426;28;19917;-61
2021/10/07 01:48:15;;;;;;;;;;;9.60;99.20;;;;;;5064966;28;19916;-61
2021/10/07 01:50:41;;;;;;;;;;;9.50;99.10;;;;;;5063887;28;19925;-62
2021/10/07 01:53:07;;;;;;;;;;;9.50;99.20;;;;;;5061840;28;21488;-63
2021/10/07 01:55:32;;;;;;;;;;;9.50;99.30;;;;;;5063014;28;19920;-62
2021/10/07 01:57:57;;;;;;;;;;;9.50;99.30;;;;;;5063522;28;19913;-61
2021/10/07 02:00:23;;;;;;;;;;;9.50;99.20;;;;;;5063908;28;19962;-60
2021/10/07 02:02:48;;;;;;;;;;;9.40;99.00;;;;;;5064478;28;20014;-62
2021/10/07 02:05:14;;;;;;;;;;;9.30;99.20;;;;;;5065793;28;20234;-59
2021/10/07 02:07:39;;;;;;;;;;;9.30;99.30;;;;;;5065018;28;19920;-60
2021/10/07 02:10:08;;;;;;;;;;;9.20;99.40;;;;;;5064858;28;19923;-63
2021/10/07 02:12:34;;;;;;;;;;;9.30;99.40;;;;;;5059922;28;20065;-61
2021/10/07 02:14:59;;;;;;;;;;;9.30;99.50;;;;;;5063098;28;20420;-61
2021/10/07 02:17:25;;;;;;;;;;;9.30;99.10;;;;;;5064238;28;19920;-60
2021/10/07 02:19:50;;;;;;;;;;;9.20;99.10;;;;;;5078822;28;20287;-61
2021/10/07 02:22:16;;;;;;;;;;;9.10;99.30;;;;;;5059514;28;20013;-61
2021/10/07 02:24:41;;;;;;;;;;;9.00;99.50;;;;;;5066501;28;20268;-62
2021/10/07 02:27:06;;;;;;;;;;;9.00;99.50;;;;;;5064585;28;19961;-61
2021/10/07 02:29:32;;;;;;;;;;;9.00;99.50;;;;;;5062771;28;20003;-61
2021/10/07 02:31:57;;;;;;;;;;;8.90;99.40;;;;;;5060898;28;19948;-61
2021/10/07 02:34:23;;;;;;;;;;;8.90;99.50;;;;;;5064836;28;20280;-61
2021/10/07 02:36:50;;;;;;;;;;;8.90;99.60;;;;;;5064815;28;20019;-61
2021/10/07 02:39:15;;;;;;;;;;;8.90;99.50;;;;;;5064887;28;19921;-61
2021/10/07 02:41:41;;;;;;;;;;;8.80;99.50;;;;;;5062672;28;19986;-61
2021/10/07 02:44:06;;;;;;;;;;;8.80;99.50;;;;;;5061848;28;20012;-61
2021/10/07 02:46:32;;;;;;;;;;;8.80;99.70;;;;;;5061420;28;19917;-61
2021/10/07 02:48:57;;;;;;;;;;;8.80;99.60;;;;;;5063085;28;19916;-61
2021/10/07 02:51:22;;;;;;;;;;;8.90;99.70;;;;;;5062977;28;19912;-61
2021/10/07 02:53:48;;;;;;;;;;;8.90;99.70;;;;;;5064673;28;20327;-61
2021/10/07 02:56:13;;;;;;;;;;;8.90;99.90;;;;;;5063720;28;20529;-60
2021/10/07 02:58:39;;;;;;;;;;;8.90;99.80;;;;;;5062161;28;19921;-61
2021/10/07 03:01:04;;;;;;;;;;;8.90;99.80;;;;;;5059565;28;20017;-63
2021/10/07 03:03:30;;;;;;;;;;;8.90;99.80;;;;;;5062072;28;20293;-60
2021/10/07 03:05:55;;;;;;;;;;;8.90;99.70;;;;;;5060165;28;19916;-62
2021/10/07 03:08:27;;;;;;;;;;;8.90;99.80;;;;;;5064284;28;20150;-63
2021/10/07 03:10:53;;;;;;;;;;;8.90;99.80;;;;;;5063500;28;19916;-59
2021/10/07 03:13:18;;;;;;;;;;;8.90;99.90;;;;;;5063859;28;19919;-61
2021/10/07 03:15:44;;;;;;;;;;;8.90;99.90;;;;;;5064091;28;19924;-61
2021/10/07 03:18:09;;;;;;;;;;;8.90;99.90;;;;;;5062946;28;19916;-61
2021/10/07 03:20:35;;;;;;;;;;;8.80;99.90;;;;;;5063080;28;19920;-61
2021/10/07 03:23:00;;;;;;;;;;;8.80;99.90;;;;;;5076715;28;19920;-61
2021/10/07 03:25:25;;;;;;;;;;;8.70;99.90;;;;;;5062672;28;20098;-62
2021/10/07 03:27:51;;;;;;;;;;;8.60;99.90;;;;;;5062103;28;19994;-61
2021/10/07 03:30:16;;;;;;;;;;;8.60;99.90;;;;;;5062697;28;19916;-61
2021/10/07 03:32:42;;;;;;;;;;;8.60;99.90;;;;;;5063191;28;20284;-61
2021/10/07 03:35:07;;;;;;;;;;;8.60;99.90;;;;;;5062762;28;19916;-63
2021/10/07 03:37:33;;;;;;;;;;;8.50;99.90;;;;;;5060494;28;19912;-61
2021/10/07 03:39:58;;;;;;;;;;;8.50;99.90;;;;;;5061337;28;20003;-61
2021/10/07 03:42:24;;;;;;;;;;;8.50;99.90;;;;;;5063411;28;19917;-61
2021/10/07 03:44:49;;;;;;;;;;;8.50;99.90;;;;;;5063017;28;20006;-61
2021/10/07 03:47:15;;;;;;;;;;;8.50;99.90;;;;;;5061763;28;20129;-61
2021/10/07 03:49:40;;;;;;;;;;;8.50;99.90;;;;;;5060350;28;19913;-61
2021/10/07 03:52:06;;;;;;;;;;;8.60;99.90;;;;;;5065108;28;20381;-63
2021/10/07 03:54:31;;;;;;;;;;;8.60;99.90;;;;;;5061848;28;19927;-62
2021/10/07 03:56:56;;;;;;;;;;;8.60;99.90;;;;;;5062309;28;19921;-62
2021/10/07 03:59:22;;;;;;;;;;;8.60;99.90;;;;;;5062307;28;19920;-63
2021/10/07 04:01:47;;;;;;;;;;;8.60;99.90;;;;;;5075537;28;19979;-61
2021/10/07 04:04:13;;;;;;;;;;;8.50;99.90;;;;;;5063075;28;20041;-62
2021/10/07 04:06:38;;;;;;;;;;;8.50;99.90;;;;;;5066949;28;20253;-62
2021/10/07 04:09:04;;;;;;;;;;;8.50;99.90;;;;;;5065674;28;19916;-61
2021/10/07 04:11:29;;;;;;;;;;;8.60;99.90;;;;;;5062283;28;20023;-63
2021/10/07 04:13:55;;;;;;;;;;;8.60;99.90;;;;;;5063589;28;20320;-61
2021/10/07 04:16:20;;;;;;;;;;;8.60;99.90;;;;;;5064765;28;19912;-61
2021/10/07 04:18:45;;;;;;;;;;;8.60;99.90;;;;;;5064386;28;19982;-62
2021/10/07 04:21:12;;;;;;;;;;;8.60;99.90;;;;;;5067317;28;19991;-62
2021/10/07 04:23:37;;;;;;;;;;;8.60;99.90;;;;;;5067433;28;19912;-60
2021/10/07 04:26:05;;;;;;;;;;;8.60;99.90;;;;;;5068150;28;19913;-63
2021/10/07 04:28:30;;;;;;;;;;;8.60;99.90;;;;;;5066640;28;19971;-61
2021/10/07 04:30:56;;;;;;;;;;;8.60;99.90;;;;;;5067584;28;20242;-61
2021/10/07 04:33:21;;;;;;;;;;;8.60;99.90;;;;;;5065006;28;20360;-62
2021/10/07 04:35:47;;;;;;;;;;;8.60;99.90;;;;;;5067222;28;19927;-61
2021/10/07 04:38:12;;;;;;;;;;;8.60;99.90;;;;;;5066657;28;19995;-61
2021/10/07 04:40:38;;;;;;;;;;;8.60;99.90;;;;;;5063035;28;19931;-61
2021/10/07 04:43:03;;;;;;;;;;;8.60;99.90;;;;;;5068193;28;19913;-61
2021/10/07 04:45:29;;;;;;;;;;;8.50;99.90;;;;;;5066766;28;20100;-61
2021/10/07 04:47:54;;;;;;;;;;;8.50;99.90;;;;;;5065678;28;20276;-62
2021/10/07 04:50:20;;;;;;;;;;;8.40;99.90;;;;;;5065654;28;19943;-62
2021/10/07 04:52:45;;;;;;;;;;;8.40;99.90;;;;;;5068056;28;19927;-61
2021/10/07 04:55:10;;;;;;;;;;;8.30;99.90;;;;;;5063902;28;20337;-62
2021/10/07 04:57:36;;;;;;;;;;;8.30;99.90;;;;;;5068312;28;20286;-61
2021/10/07 05:00:06;;;;;;;;;;;8.30;99.90;;;;;;5064119;28;19928;-65
2021/10/07 05:02:34;;;;;;;;;;;8.30;99.90;;;;;;5067595;28;19924;-62
2021/10/07 05:04:59;;;;;;;;;;;8.30;99.90;;;;;;5064205;28;19958;-62
2021/10/07 05:07:25;;;;;;;;;;;8.30;99.90;;;;;;5068558;28;19916;-62
2021/10/07 05:09:50;;;;;;;;;;;8.40;99.90;;;;;;5063345;28;19909;-62
2021/10/07 05:12:16;;;;;;;;;;;8.40;99.90;;;;;;5065516;28;19936;-61
2021/10/07 05:14:41;;;;;;;;;;;8.50;99.90;;;;;;5065404;28;19973;-62
2021/10/07 05:17:07;;;;;;;;;;;8.50;99.90;;;;;;5083265;28;19913;-62
2021/10/07 05:19:32;;;;;;;;;;;8.60;99.90;;;;;;5066063;28;19917;-61
2021/10/07 05:21:57;;;;;;;;;;;8.60;99.90;;;;;;5074866;28;19999;-61
2021/10/07 05:24:23;;;;;;;;;;;8.70;99.90;;;;;;5065456;28;19952;-63
2021/10/07 05:26:48;;;;;;;;;;;8.70;99.90;;;;;;5065751;28;19912;-62
2021/10/07 05:29:14;;;;;;;;;;;8.70;99.90;;;;;;5065628;28;19917;-62
2021/10/07 05:31:39;;;;;;;;;;;8.80;99.90;;;;;;5065729;28;19920;-63
2021/10/07 05:34:04;;;;;;;;;;;8.70;99.90;;;;;;5068289;28;20391;-63
2021/10/07 05:36:31;;;;;;;;;;;8.70;99.90;;;;;;5066573;28;20378;-61
2021/10/07 05:38:57;;;;;;;;;;;8.70;99.90;;;;;;5067917;28;19916;-62
2021/10/07 05:41:22;;;;;;;;;;;8.60;99.90;;;;;;5065076;28;20339;-61
2021/10/07 05:43:48;;;;;;;;;;;8.50;99.90;;;;;;5067879;28;19912;-62
2021/10/07 05:46:13;;;;;;;;;;;8.50;99.90;;;;;;5078581;28;20217;-64
2021/10/07 05:48:39;;;;;;;;;;;8.50;99.90;;;;;;5056129;28;19970;-62
2021/10/07 05:51:04;;;;;;;;;;;8.50;99.90;;;;;;5048845;28;19916;-63
2021/10/07 05:53:29;;;;;;;;;;;8.40;99.90;;;;;;5062570;28;19916;-63
2021/10/07 05:55:55;;;;;;;;;;;8.50;99.90;;;;;;5063540;28;20365;-61
2021/10/07 05:58:20;;;;;;;;;;;8.50;99.90;;;;;;5065284;28;19912;-64
2021/10/07 06:00:46;;;;;;;;;;;8.50;99.90;;;;;;5063580;28;20266;-62
2021/10/07 06:03:11;;;;;;;;;;;8.50;99.90;;;;;;5063441;28;20293;-63
2021/10/07 06:05:37;;;;;;;;;;;8.50;99.90;;;;;;5066377;28;20258;-61
2021/10/07 06:08:03;;;;;;;;;;;8.50;99.90;;;;;;5065783;28;19927;-62
2021/10/07 06:10:29;;;;;;;;;;;8.50;99.90;;;;;;5076366;28;19921;-61
2021/10/07 06:12:54;;;;;;;;;;;8.50;99.90;;;;;;5065604;28;19919;-62
2021/10/07 06:15:19;;;;;;;;;;;8.60;99.90;;;;;;5062833;28;19936;-61
2021/10/07 06:17:45;;;;;;;;;;;8.70;99.90;;;;;;5065024;28;20011;-62
2021/10/07 06:20:23;;;;;;;;;;;8.70;99.90;;;;;;5064359;28;20388;-62
2021/10/07 06:22:49;;;;;;;;;;;8.80;99.90;;;;;;5064436;28;19919;-63
2021/10/07 06:25:15;;;;;;;;;;;8.80;99.90;;;;;;5063948;28;20241;-62
2021/10/07 06:27:41;;;;;;;;;;;8.90;99.90;;;;;;5063765;28;19946;-62
2021/10/07 06:30:06;;;;;;;;;;;8.90;99.90;;;;;;5063622;28;19916;-64
2021/10/07 06:32:32;;;;;;;;;;;9.00;99.90;;;;;;5061865;28;19920;-62
2021/10/07 06:34:57;;;;;;;;;;;9.10;99.90;;;;;;5061969;28;19919;-62
2021/10/07 06:37:24;;;;;;;;;;;9.10;99.90;;;;;;5060172;28;22342;-63
2021/10/07 06:39:50;;;;;;;;;;;9.20;99.90;;;;;;5061657;28;19931;-62
2021/10/07 06:42:15;;;;;;;;;;;9.20;99.90;;;;;;5062487;28;20342;-64
2021/10/07 06:44:41;;;;;;;;;;;9.30;99.90;;;;;;5064652;28;19912;-62
2021/10/07 06:47:06;;;;;;;;;;;9.30;99.90;;;;;;5062585;28;19917;-63
2021/10/07 06:49:32;;;;;;;;;;;9.30;99.90;;;;;;5078416;28;19935;-63
2021/10/07 06:51:57;;;;;;;;;;;9.30;99.90;;;;;;5063090;28;19924;-62
2021/10/07 06:54:22;;;;;;;;;;;9.40;99.90;;;;;;5061181;28;20306;-63
2021/10/07 06:56:48;;;;;;;;;;;9.50;99.90;;;;;;5063773;28;20494;-62
2021/10/07 06:59:13;;;;;;;;;;;9.50;99.90;;;;;;5064067;28;20293;-62
2021/10/07 07:01:39;;;;;;;;;;;9.60;99.90;;;;;;5061803;28;19965;-62
2021/10/07 07:04:04;;;;;;;;;;;9.60;99.90;;;;;;5063202;28;19912;-63
2021/10/07 07:06:30;;;;;;;;;;;9.70;99.90;;;;;;5054608;28;20332;-62
2021/10/07 07:08:55;;;;;;;;;;;9.70;99.90;;;;;;5056636;28;19925;-60
2021/10/07 07:11:26;;;;;;;;;;;9.70;99.90;;;;;;5048476;28;19935;-64
2021/10/07 07:13:52;;;;;;;;;;;9.70;99.90;;;;;;5059992;28;20304;-62
2021/10/07 07:16:17;;;;;;;;;;;9.80;99.90;;;;;;5054724;28;20024;-63
2021/10/07 07:18:42;;;;;;;;;;;9.90;99.90;;;;;;5057133;28;19920;-61
2021/10/07 07:21:08;;;;;;;;;;;10.00;99.90;;;;;;5040660;28;20007;-62
2021/10/07 07:23:33;;;;;;;;;;;10.00;99.90;;;;;;5025476;28;19951;-62
2021/10/07 07:25:59;;;;;;;;;;;10.10;99.90;;;;;;5035238;28;19966;-62
2021/10/07 07:28:24;;;;;;;;;;;10.10;99.90;;;;;;5028670;28;19978;-62
2021/10/07 07:30:50;;;;;;;;;;;10.20;99.80;;;;;;5038289;28;19920;-63
2021/10/07 07:33:20;;;;;;;;;;;10.30;99.70;;;;;;5029971;28;20750;-63
2021/10/07 07:35:45;;;;;;;;;;;10.30;99.70;;;;;;5032804;28;19920;-63
2021/10/07 07:38:11;;;;;;;;;;;10.40;99.70;;;;;;5031709;28;19927;-64
2021/10/07 07:40:36;;;;;;;;;;;10.40;99.60;;;;;;5036822;28;19924;-63
2021/10/07 07:43:02;;;;;;;;;;;10.50;99.60;;;;;;5036948;28;19935;-61
2021/10/07 07:45:27;;;;;;;;;;;10.60;99.70;;;;;;5035497;28;20330;-63
2021/10/07 07:47:53;;;;;;;;;;;10.60;99.50;;;;;;5030906;28;20314;-61
2021/10/07 07:50:19;;;;;;;;;;;10.70;99.50;;;;;;5031544;28;20349;-61
2021/10/07 07:52:45;;;;;;;;;;;10.70;99.50;;;;;;5026394;28;19921;-61
2021/10/07 07:55:11;;;;;;;;;;;10.80;99.50;;;;;;5040548;28;20434;-62
2021/10/07 07:57:37;;;;;;;;;;;10.80;99.50;;;;;;5050935;28;19978;-63
2021/10/07 08:00:03;;;;;;;;;;;10.90;99.50;;;;;;5038153;28;20377;-64
2021/10/07 08:02:29;;;;;;;;;;;11.00;99.50;;;;;;5046478;28;19921;-62
2021/10/07 08:04:54;;;;;;;;;;;11.10;99.40;;;;;;5059161;28;19920;-63
2021/10/07 08:07:20;;;;;;;;;;;11.20;99.40;;;;;;5062624;28;19912;-63
2021/10/07 08:09:45;;;;;;;;;;;11.30;99.40;;;;;;5052777;28;20368;-63
2021/10/07 08:12:12;;;;;;;;;;;11.40;99.30;;;;;;5061633;28;19916;-62
2021/10/07 08:14:42;;;;;;;;;;;11.50;99.20;;;;;;5063631;28;20237;-63
2021/10/07 08:17:08;;;;;;;;;;;11.60;99.10;;;;;;5062113;28;19927;-62
2021/10/07 08:19:33;;;;;;;;;;;11.60;99.10;;;;;;5058443;28;19920;-63
2021/10/07 08:21:59;;;;;;;;;;;11.70;99.00;;;;;;5063642;28;19943;-60
2021/10/07 08:24:24;;;;;;;;;;;11.90;99.00;;;;;;5078655;28;19913;-61
2021/10/07 08:26:50;;;;;;;;;;;11.90;98.80;;;;;;5070459;28;19966;-62
2021/10/07 08:29:16;;;;;;;;;;;12.00;98.70;;;;;;5068296;28;20359;-62
2021/10/07 08:31:41;;;;;;;;;;;12.10;98.60;;;;;;5067581;28;19928;-62
2021/10/07 08:34:07;;;;;;;;;;;12.10;98.40;;;;;;5069441;28;19908;-62
2021/10/07 08:36:33;;;;;;;;;;;12.10;98.40;;;;;;5067556;28;20373;-62
2021/10/07 08:38:59;;;;;;;;;;;12.20;98.40;;;;;;5065431;28;19923;-62
2021/10/07 08:41:24;;;;;;;;;;;12.30;98.40;;;;;;5068584;28;19916;-61
2021/10/07 08:43:50;;;;;;;;;;;12.40;98.20;;;;;;5068557;28;19917;-62
2021/10/07 08:46:17;;;;;;;;;;;12.50;98.20;;;;;;5068633;28;19969;-62
2021/10/07 08:48:43;;;;;;;;;;;12.60;97.90;;;;;;5066304;28;19912;-62
2021/10/07 08:51:08;;;;;;;;;;;12.70;97.60;;;;;;5062356;28;20116;-62
2021/10/07 08:53:34;;;;;;;;;;;12.70;97.60;;;;;;5064671;28;20016;-62
2021/10/07 08:56:01;;;;;;;;;;;12.80;97.70;;;;;;5063902;28;20007;-62
2021/10/07 08:58:27;;;;;;;;;;;12.90;97.50;;;;;;5066010;28;19959;-62
2021/10/07 09:00:52;;;;;;;;;;;12.90;97.10;;;;;;5065459;28;19916;-62
2021/10/07 09:03:19;;;;;;;;;;;12.90;96.60;;;;;;5065425;28;19939;-62
2021/10/07 09:05:44;;;;;;;;;;;13.00;96.60;;;;;;5065791;28;20187;-62
2021/10/07 09:08:12;;;;;;;;;;;13.10;96.80;;;;;;5063596;28;19913;-62
2021/10/07 09:10:43;;;;;;;;;;;13.20;96.90;;;;;;5067040;28;19912;-62
2021/10/07 09:13:09;;;;;;;;;;;13.20;96.60;;;;;;5066015;28;19913;-63
2021/10/07 09:15:39;;;;;;;;;;;13.20;96.00;;;;;;5069318;28;19917;-63
2021/10/07 09:18:05;;;;;;;;;;;13.30;96.20;;;;;;5066522;28;20395;-60
2021/10/07 09:20:32;;;;;;;;;;;13.30;96.00;;;;;;5067693;28;20037;-61
2021/10/07 09:23:03;;;;;;;;;;;13.40;95.80;;;;;;5064301;28;19921;-62
2021/10/07 09:25:28;;;;;;;;;;;13.40;95.80;;;;;;5067838;28;20376;-62
2021/10/07 09:28:00;;;;;;;;;;;13.50;95.90;;;;;;5064372;28;20445;-62
2021/10/07 09:30:26;;;;;;;;;;;13.60;95.50;;;;;;5065499;28;19923;-63
2021/10/07 09:32:59;;;;;;;;;;;13.60;95.30;;;;;;5065836;28;19912;-63
2021/10/07 09:35:24;;;;;;;;;;;13.60;94.50;;;;;;5066907;28;19920;-63
2021/10/07 09:37:56;;;;;;;;;;;13.60;95.20;;;;;;5067177;28;20377;-62
2021/10/07 09:40:23;;;;;;;;;;;13.70;95.40;;;;;;5063980;28;20205;-63
2021/10/07 09:42:50;;;;;;;;;;;13.70;94.70;;;;;;5065475;28;19919;-63
2021/10/07 09:45:16;;;;;;;;;;;13.80;94.70;;;;;;5065686;28;19920;-63
2021/10/07 09:47:44;;;;;;;;;;;13.80;94.70;;;;;;5065345;28;19916;-63
2021/10/07 09:50:28;;;;;;;;;;;13.80;94.60;;;;;;5065286;28;19928;-63
2021/10/07 09:52:53;;;;;;;;;;;13.80;94.70;;;;;;5065889;28;20387;-63
2021/10/07 09:55:20;;;;;;;;;;;13.90;94.60;;;;;;5065225;28;19920;-62
2021/10/07 09:58:18;;;;;;;;;;;13.90;94.50;;;;;;5066250;28;20307;-62
2021/10/07 10:00:51;;;;;;;;;;;14.00;94.80;;;;;;5017260;28;20399;-63
2021/10/07 10:03:17;;;;;;;;;;;14.10;94.20;;;;;;5066932;28;19921;-63
2021/10/07 10:05:44;;;;;;;;;;;14.10;94.10;;;;;;5064085;28;19923;-63
2021/10/07 10:08:11;;;;;;;;;;;14.20;94.70;;;;;;5065424;28;20011;-62
2021/10/07 10:10:37;;;;;;;;;;;14.30;94.70;;;;;;5066375;28;20307;-62
2021/10/07 10:13:02;;;;;;;;;;;14.40;94.60;;;;;;5066647;28;19919;-63
2021/10/07 10:15:28;;;;;;;;;;;14.60;94.50;;;;;;5064803;28;20267;-62
2021/10/07 10:17:54;;;;;;;;;;;14.70;93.70;;;;;;5064062;28;19920;-63
2021/10/07 10:20:24;;;;;;;;;;;14.70;92.80;;;;;;5064514;28;19921;-62
2021/10/07 10:22:53;;;;;;;;;;;14.70;93.30;;;;;;5064331;28;19917;-63
2021/10/07 10:25:18;;;;;;;;;;;14.80;93.10;;;;;;5060193;28;19920;-61
2021/10/07 10:27:45;;;;;;;;;;;14.70;93.30;;;;;;5065542;28;19912;-63
2021/10/07 10:30:17;;;;;;;;;;;14.80;93.00;;;;;;5064151;28;20013;-63
2021/10/07 10:32:43;;;;;;;;;;;15.00;93.40;;;;;;5063351;28;20606;-63
2021/10/07 10:35:28;;;;;;;;;;;15.20;93.60;;;;;;5064777;28;19963;-63
2021/10/07 10:37:57;;;;;;;;;;;15.30;92.80;;;;;;5066010;28;20400;-63
2021/10/07 10:40:22;;;;;;;;;;;15.40;93.00;;;;;;5064526;28;19920;-63
2021/10/07 10:42:48;;;;;;;;;;;15.50;93.10;;;;;;5061678;28;19981;-63
2021/10/07 10:45:13;;;;;;;;;;;15.50;92.40;;;;;;5062338;28;20318;-64
2021/10/07 10:47:42;;;;;;;;;;;15.40;92.50;;;;;;5063222;28;19923;-63
2021/10/07 10:50:12;;;;;;;;;;;15.30;92.60;;;;;;5060700;28;19913;-63
2021/10/07 10:52:41;;;;;;;;;;;15.40;92.60;;;;;;5062611;28;20035;-61
2021/10/07 10:55:11;;;;;;;;;;;15.40;93.20;;;;;;5063011;28;19967;-61
2021/10/07 10:57:36;;;;;;;;;;;15.40;92.50;;;;;;5060307;28;19920;-63
2021/10/07 11:00:08;;;;;;;;;;;15.40;92.90;;;;;;5059770;28;19913;-62
2021/10/07 11:02:34;;;;;;;;;;;15.40;92.00;;;;;;5063804;28;19943;-62
2021/10/07 11:05:09;;;;;;;;;;;15.30;92.40;;;;;;5062972;28;20380;-62
2021/10/07 11:07:38;;;;;;;;;;;15.40;92.50;;;;;;5059576;28;19912;-62
2021/10/07 11:10:06;;;;;;;;;;;15.50;92.80;;;;;;5060696;28;19912;-63
2021/10/07 11:12:33;;;;;;;;;;;15.60;92.90;;;;;;5061407;28;19919;-63
2021/10/07 11:14:59;;;;;;;;;;;15.60;92.40;;;;;;5062237;28;20343;-63
2021/10/07 11:17:28;;;;;;;;;;;15.70;92.70;;;;;;5064817;28;20019;-63
2021/10/07 11:19:54;;;;;;;;;;;15.70;92.70;;;;;;5062351;28;19912;-62
2021/10/07 11:22:20;;;;;;;;;;;15.60;92.70;;;;;;5061470;28;19982;-62
2021/10/07 11:24:52;;;;;;;;;;;15.70;92.70;;;;;;5062271;28;19920;-62
2021/10/07 11:27:36;;;;;;;;;;;15.60;92.30;;;;;;5059899;28;19913;-62
2021/10/07 11:30:04;;;;;;;;;;;15.50;92.40;;;;;;5062445;28;19920;-62
2021/10/07 11:32:30;;;;;;;;;;;15.60;92.70;;;;;;5060953;28;19998;-63
2021/10/07 11:34:59;;;;;;;;;;;15.80;92.80;;;;;;5064307;28;20010;-63
2021/10/07 11:37:26;;;;;;;;;;;16.10;92.90;;;;;;5076642;28;20318;-64
2021/10/07 11:40:11;;;;;;;;;;;16.30;91.80;;;;;;5075923;28;19944;-63
2021/10/07 11:42:37;;;;;;;;;;;16.30;91.00;;;;;;5061784;28;19998;-62
2021/10/07 11:45:16;;;;;;;;;;;16.40;91.20;;;;;;5062847;28;19916;-62
2021/10/07 11:47:41;;;;;;;;;;;16.40;91.40;;;;;;5065183;28;20358;-63
2021/10/07 11:50:14;;;;;;;;;;;16.50;91.60;;;;;;5063661;28;19922;-63
2021/10/07 11:52:39;;;;;;;;;;;16.70;91.30;;;;;;5060386;28;19917;-63
2021/10/07 11:55:05;;;;;;;;;;;16.70;91.40;;;;;;5062966;28;19935;-63
2021/10/07 11:57:30;;;;;;;;;;;16.80;91.50;;;;;;5062731;28;19926;-63
2021/10/07 11:59:56;;;;;;;;;;;16.90;91.60;;;;;;5061705;28;19916;-62
2021/10/07 12:02:21;;;;;;;;;;;17.00;91.20;;;;;;5062818;28;19916;-63
2021/10/07 12:04:46;;;;;;;;;;;17.20;91.50;;;;;;5063168;28;20014;-63
2021/10/07 12:07:13;;;;;;;;;;;17.40;91.30;;;;;;5061728;28;19916;-62
2021/10/07 12:09:42;;;;;;;;;;;17.50;90.90;;;;;;5061412;28;19928;-62
2021/10/07 12:12:08;;;;;;;;;;;17.60;91.30;;;;;;5061975;28;19923;-63
2021/10/07 12:14:33;;;;;;;;;;;17.70;90.80;;;;;;5065259;28;19913;-62
2021/10/07 12:16:59;;;;;;;;;;;17.80;90.30;;;;;;5060606;28;19943;-62
2021/10/07 12:19:27;;;;;;;;;;;17.80;90.60;;;;;;5063670;28;19920;-62
2021/10/07 12:21:59;;;;;;;;;;;17.80;90.20;;;;;;5064686;28;19924;-61
2021/10/07 12:24:26;;;;;;;;;;;18.00;90.10;;;;;;5063294;28;19919;-62
2021/10/07 12:26:52;;;;;;;;;;;18.00;90.20;;;;;;5062000;28;19912;-61
2021/10/07 12:29:28;;;;;;;;;;;18.10;90.10;;;;;;5064772;28;19920;-62
2021/10/07 12:31:58;;;;;;;;;;;18.20;90.00;;;;;;5059969;28;20415;-63
2021/10/07 12:34:26;;;;;;;;;;;18.10;90.00;;;;;;5063207;28;19916;-62
2021/10/07 12:36:53;;;;;;;;;;;18.10;88.80;;;;;;5063333;28;19923;-62
2021/10/07 12:39:23;;;;;;;;;;;18.20;88.60;;;;;;5080205;23;19901;-75
2021/10/07 12:41:50;;;;;;;;;;;18.10;88.90;;;;;;5096906;28;20382;-74
2021/10/07 12:44:20;;;;;;;;;;;18.20;88.80;;;;;;5082835;28;19912;-73
2021/10/07 12:46:53;;;;;;;;;;;18.40;88.10;;;;;;5104528;28;19916;-74
2021/10/07 12:49:31;;;;;;;;;;;18.30;89.60;;;;;;5083530;28;19913;-71
2021/10/07 12:51:58;;;;;;;;;;;18.30;88.50;;;;;;5046861;28;19920;-71
2021/10/07 12:54:27;;;;;;;;;;;18.10;88.50;;;;;;5070482;28;19913;-72
2021/10/07 12:56:52;;;;;;;;;;;18.10;89.10;;;;;;5069496;28;19955;-72
2021/10/07 12:59:18;;;;;;;;;;;18.20;88.60;;;;;;5069090;28;19993;-70
2021/10/07 13:01:45;;;;;;;;;;;18.20;87.20;;;;;;5069642;28;19990;-71
2021/10/07 13:04:18;;;;;;;;;;;18.20;88.10;;;;;;5048192;28;20010;-70
2021/10/07 13:06:44;;;;;;;;;;;18.30;87.90;;;;;;5069689;28;19913;-69
2021/10/07 13:09:10;;;;;;;;;;;18.20;86.60;;;;;;5070353;28;19939;-73
2021/10/07 13:11:36;;;;;;;;;;;18.00;86.80;;;;;;5068062;28;20339;-71
2021/10/07 13:14:02;;;;;;;;;;;17.80;86.60;;;;;;5057753;28;20088;-70
2021/10/07 13:16:28;;;;;;;;;;;17.70;84.90;;;;;;5068205;28;20232;-72
2021/10/07 13:18:54;;;;;;;;;;;17.50;86.20;;;;;;5067842;28;19928;-73
2021/10/07 13:21:20;;;;;;;;;;;17.40;86.10;;;;;;5066495;28;20298;-72
2021/10/07 13:23:46;;;;;;;;;;;17.40;86.80;;;;;;5069713;28;19908;-72
2021/10/07 13:26:11;;;;;;;;;;;17.40;87.60;;;;;;5049525;28;19939;-71
2021/10/07 13:28:38;;;;;;;;;;;17.50;87.40;;;;;;5065967;28;19921;-71
2021/10/07 13:31:03;;;;;;;;;;;17.50;87.70;;;;;;5066175;28;19916;-70
2021/10/07 13:33:29;;;;;;;;;;;17.50;86.90;;;;;;5066502;28;19970;-71
2021/10/07 13:35:54;;;;;;;;;;;17.50;86.60;;;;;;5068439;28;19928;-71
2021/10/07 13:38:22;;;;;;;;;;;17.50;86.90;;;;;;5050319;28;19917;-74
2021/10/07 13:40:49;;;;;;;;;;;17.50;85.40;;;;;;5067722;28;20021;-73
2021/10/07 13:43:14;;;;;;;;;;;17.40;85.20;;;;;;5065495;28;19920;-73
2021/10/07 13:45:40;;;;;;;;;;;17.30;84.50;;;;;;5068918;28;19913;-71
2021/10/07 13:48:05;;;;;;;;;;;17.30;84.10;;;;;;5068196;28;19916;-68
2021/10/07 13:50:31;;;;;;;;;;;17.30;83.60;;;;;;5068339;28;19916;-68
2021/10/07 13:52:57;;;;;;;;;;;17.20;83.40;;;;;;5068174;28;19924;-67
2021/10/07 13:55:22;;;;;;;;;;;17.10;83.00;;;;;;5046762;28;20290;-67
2021/10/07 13:57:50;;;;;;;;;;;17.00;82.30;;;;;;5048587;28;19963;-67
2021/10/07 14:00:16;;;;;;;;;;;16.90;81.70;;;;;;5069255;28;20001;-71
2021/10/07 14:02:41;;;;;;;;;;;16.80;83.00;;;;;;5065030;28;20351;-68
2021/10/07 14:05:07;;;;;;;;;;;16.80;84.50;;;;;;5069497;28;19913;-68
2021/10/07 14:07:32;;;;;;;;;;;16.90;84.80;;;;;;5068631;28;20007;-68
2021/10/07 14:09:58;;;;;;;;;;;17.10;84.90;;;;;;5068523;28;19923;-68
2021/10/07 14:12:23;;;;;;;;;;;17.20;84.80;;;;;;5068460;28;20476;-69
2021/10/07 14:14:48;;;;;;;;;;;17.30;85.60;;;;;;5067873;28;20360;-68
2021/10/07 14:17:14;;;;;;;;;;;17.30;83.00;;;;;;5068560;28;20368;-68
2021/10/07 14:19:39;;;;;;;;;;;17.20;84.50;;;;;;5069175;28;19913;-69
2021/10/07 14:22:05;;;;;;;;;;;17.30;85.70;;;;;;5067499;28;19913;-69
2021/10/07 14:24:30;;;;;;;;;;;17.50;84.90;;;;;;5068089;28;20368;-68